Terminal Aerodrome Forecast
Issued by NWS

Home | Current Version | Previous Version | Text Only | Print | Product List | Glossary On
Versions: 1 2 3 4 5 6 7 8 9 10 11 12
946
FTUS44 KSJT 130520
TAFJCT
TAF
KJCT 130520Z 1306/1406 08005KT P6SM SKC
     FM131500 12006KT P6SM SCT025
     FM131900 17012KT P6SM SKC=

USA.gov is the U.S. government's official web portal to all federal, state and local government web resources and services.